createdAt,value
2017-07-09T00:00:39.966Z,21.00
2017-07-09T00:03:07.056Z,20.90
2017-07-09T00:05:33.391Z,20.90
2017-07-09T00:07:59.743Z,21.00
2017-07-09T00:10:26.053Z,20.90
2017-07-09T00:12:52.380Z,20.90
2017-07-09T00:15:18.705Z,20.60
2017-07-09T00:17:45.007Z,20.60
2017-07-09T00:20:12.064Z,20.40
2017-07-09T00:22:38.363Z,20.40
2017-07-09T00:25:04.660Z,20.50
2017-07-09T00:27:31.008Z,20.60
2017-07-09T00:29:57.387Z,20.60
2017-07-09T00:32:23.692Z,20.60
2017-07-09T00:34:50.010Z,20.60
2017-07-09T00:37:16.320Z,20.60
2017-07-09T00:39:42.660Z,20.60
2017-07-09T00:42:08.964Z,20.70
2017-07-09T00:44:35.271Z,20.70
2017-07-09T00:47:01.572Z,20.80
2017-07-09T00:49:27.901Z,20.80
2017-07-09T00:51:54.212Z,20.80
2017-07-09T00:54:20.524Z,20.80
2017-07-09T00:56:46.847Z,20.80
2017-07-09T00:59:13.152Z,20.70
2017-07-09T01:01:39.487Z,20.80
2017-07-09T01:04:05.799Z,20.70
2017-07-09T01:06:32.863Z,20.50
2017-07-09T01:08:59.196Z,20.40
2017-07-09T01:11:25.499Z,20.50
2017-07-09T01:13:52.541Z,20.50
2017-07-09T01:16:19.597Z,20.50
2017-07-09T01:18:45.908Z,20.50
2017-07-09T01:21:12.239Z,20.60
2017-07-09T01:23:38.551Z,20.50
2017-07-09T01:26:04.860Z,20.60
2017-07-09T01:28:31.171Z,20.40
2017-07-09T01:30:57.500Z,20.40
2017-07-09T01:33:24.157Z,20.40
2017-07-09T01:35:50.501Z,20.50
2017-07-09T01:38:16.809Z,20.50
2017-07-09T01:40:43.121Z,20.50
2017-07-09T01:43:09.423Z,20.60
2017-07-09T01:45:36.571Z,20.60
2017-07-09T01:48:03.636Z,20.70
2017-07-09T01:50:29.975Z,20.70
2017-07-09T01:52:56.307Z,20.70
2017-07-09T01:55:22.596Z,20.70
2017-07-09T01:57:48.930Z,20.70
2017-07-09T02:00:15.231Z,20.70
2017-07-09T02:02:42.586Z,20.70
2017-07-09T02:05:08.862Z,20.70
2017-07-09T02:07:35.886Z,20.60
2017-07-09T02:10:02.158Z,20.60
2017-07-09T02:12:28.418Z,20.60
2017-07-09T02:14:54.712Z,20.70
2017-07-09T02:17:20.981Z,20.60
2017-07-09T02:19:47.250Z,20.50
2017-07-09T02:22:14.269Z,20.60
2017-07-09T02:24:40.537Z,20.60
2017-07-09T02:27:06.845Z,20.60
2017-07-09T02:29:33.837Z,20.60
2017-07-09T02:32:00.088Z,20.50
2017-07-09T02:34:26.349Z,20.60
2017-07-09T02:36:54.370Z,20.60
2017-07-09T02:39:20.646Z,20.60
2017-07-09T02:41:47.646Z,20.60
2017-07-09T02:44:13.897Z,20.60
2017-07-09T02:46:40.166Z,20.70
2017-07-09T02:49:06.426Z,20.80
2017-07-09T02:51:32.728Z,20.80
2017-07-09T02:53:58.985Z,20.80
2017-07-09T02:56:25.269Z,20.80
2017-07-09T02:58:52.265Z,20.80
2017-07-09T03:01:18.534Z,20.80
2017-07-09T03:03:45.570Z,20.80
2017-07-09T03:06:11.825Z,20.80
2017-07-09T03:08:38.826Z,20.80
2017-07-09T03:11:06.115Z,20.80
2017-07-09T03:13:32.370Z,20.80
2017-07-09T03:15:58.665Z,20.80
2017-07-09T03:18:24.925Z,20.70
2017-07-09T03:20:51.182Z,20.80
2017-07-09T03:23:17.453Z,20.90
2017-07-09T03:25:44.468Z,20.80
2017-07-09T03:28:10.792Z,20.70
2017-07-09T03:30:37.063Z,20.90
2017-07-09T03:33:04.062Z,20.80
2017-07-09T03:35:30.339Z,20.80
2017-07-09T03:37:57.341Z,20.70
2017-07-09T03:40:23.636Z,20.70
2017-07-09T03:42:49.898Z,20.60
2017-07-09T03:45:16.163Z,20.60
2017-07-09T03:47:43.167Z,20.50
2017-07-09T03:50:09.438Z,20.40
2017-07-09T03:52:36.527Z,20.50
2017-07-09T03:55:02.819Z,20.50
2017-07-09T03:57:29.836Z,20.50
2017-07-09T03:59:56.106Z,20.40
2017-07-09T04:02:23.109Z,20.60
2017-07-09T04:04:49.388Z,20.60
2017-07-09T04:07:15.654Z,20.70
2017-07-09T04:09:41.910Z,20.80
2017-07-09T04:12:08.177Z,20.90
2017-07-09T04:14:34.438Z,20.90
2017-07-09T04:17:00.742Z,20.80
2017-07-09T04:19:27.010Z,20.80
2017-07-09T04:21:53.261Z,20.80
2017-07-09T04:24:19.523Z,20.60
2017-07-09T04:26:45.795Z,20.50
2017-07-09T04:29:12.079Z,20.60
2017-07-09T04:31:39.342Z,20.50
2017-07-09T04:34:05.599Z,20.50
2017-07-09T04:36:31.881Z,20.30
2017-07-09T04:38:58.153Z,20.30
2017-07-09T04:41:24.430Z,20.30
2017-07-09T04:43:51.422Z,20.40
2017-07-09T04:46:17.677Z,20.40
2017-07-09T04:48:43.938Z,20.50
2017-07-09T04:51:10.202Z,20.40
2017-07-09T04:53:36.474Z,20.50
2017-07-09T04:56:02.730Z,20.40
2017-07-09T04:58:28.990Z,20.50
2017-07-09T05:00:55.254Z,20.60
2017-07-09T05:03:22.518Z,20.50
2017-07-09T05:05:49.542Z,20.70
2017-07-09T05:08:15.803Z,20.70
2017-07-09T05:10:42.857Z,20.90
2017-07-09T05:13:09.113Z,20.90
2017-07-09T05:15:35.361Z,21.20
2017-07-09T05:18:01.641Z,21.40
2017-07-09T05:20:27.911Z,21.40
2017-07-09T05:22:54.398Z,21.60
2017-07-09T05:25:21.686Z,21.60
2017-07-09T05:27:49.154Z,21.70
2017-07-09T05:30:15.653Z,21.70
2017-07-09T05:32:41.906Z,21.80
2017-07-09T05:35:08.165Z,21.80
2017-07-09T05:37:34.438Z,21.70
2017-07-09T05:40:01.721Z,21.70
2017-07-09T05:42:27.997Z,21.70
2017-07-09T05:44:54.997Z,21.60
2017-07-09T05:47:21.267Z,21.60
2017-07-09T05:49:48.274Z,21.60
2017-07-09T05:52:14.533Z,21.60
2017-07-09T05:54:40.822Z,21.70
2017-07-09T05:57:07.086Z,21.60
2017-07-09T05:59:33.345Z,21.70
2017-07-09T06:01:59.602Z,21.60
2017-07-09T06:04:25.866Z,21.60
2017-07-09T06:06:52.142Z,21.70
2017-07-09T06:09:18.397Z,21.80
2017-07-09T06:11:44.641Z,21.70
2017-07-09T06:14:10.906Z,21.80
2017-07-09T06:16:37.910Z,21.60
2017-07-09T06:19:05.265Z,21.50
2017-07-09T06:21:31.545Z,21.40
2017-07-09T06:23:58.547Z,21.50
2017-07-09T06:26:24.813Z,21.40
2017-07-09T06:28:52.259Z,21.40
2017-07-09T06:31:19.274Z,21.50
2017-07-09T06:33:45.529Z,21.40
2017-07-09T06:36:12.821Z,21.40
2017-07-09T06:38:39.082Z,21.30
2017-07-09T06:41:05.330Z,21.20
2017-07-09T06:43:32.639Z,21.10
2017-07-09T06:45:59.963Z,20.90
2017-07-09T06:48:26.963Z,20.70
2017-07-09T06:50:53.233Z,20.80
2017-07-09T06:53:20.229Z,20.60
2017-07-09T06:55:46.509Z,20.60
2017-07-09T06:58:13.522Z,20.10
2017-07-09T07:00:39.810Z,20.00
2017-07-09T07:03:07.107Z,19.80
2017-07-09T07:05:33.365Z,19.40
2017-07-09T07:08:00.401Z,19.10
2017-07-09T07:10:26.677Z,19.00
2017-07-09T07:12:52.956Z,18.90
2017-07-09T07:15:19.219Z,18.80
2017-07-09T07:17:45.504Z,18.90
2017-07-09T07:20:11.804Z,18.80
2017-07-09T07:22:38.070Z,18.80
2017-07-09T07:25:04.333Z,18.80
2017-07-09T07:27:30.636Z,18.80
2017-07-09T07:29:56.908Z,18.70
2017-07-09T07:32:23.213Z,18.80
2017-07-09T07:34:49.474Z,18.70
2017-07-09T07:37:15.738Z,18.60
2017-07-09T07:39:42.006Z,18.50
2017-07-09T07:42:08.279Z,18.50
2017-07-09T07:44:34.537Z,18.40
2017-07-09T07:47:01.561Z,18.50
2017-07-09T07:49:27.827Z,18.50
2017-07-09T07:51:54.102Z,18.60
2017-07-09T07:54:20.389Z,18.70
2017-07-09T07:56:46.654Z,18.90
2017-07-09T07:59:12.910Z,19.10
2017-07-09T08:01:39.206Z,19.50
2017-07-09T08:04:05.460Z,19.70
2017-07-09T08:06:31.718Z,19.90
2017-07-09T08:08:58.719Z,20.50
2017-07-09T08:11:24.987Z,20.50
2017-07-09T08:13:53.027Z,21.20
2017-07-09T08:16:19.278Z,21.20
2017-07-09T08:18:45.541Z,21.50
2017-07-09T08:21:11.809Z,21.70
2017-07-09T08:23:38.066Z,21.80
2017-07-09T08:26:04.354Z,22.00
2017-07-09T08:28:30.613Z,22.10
2017-07-09T08:30:56.874Z,22.10
2017-07-09T08:33:23.124Z,22.10
2017-07-09T08:35:49.379Z,22.10
2017-07-09T08:38:15.666Z,22.00
2017-07-09T08:40:41.919Z,22.00
2017-07-09T08:43:08.182Z,21.90
2017-07-09T08:45:34.437Z,21.90
2017-07-09T08:48:00.709Z,22.00
2017-07-09T08:50:26.997Z,22.00
2017-07-09T08:52:54.009Z,22.30
2017-07-09T08:55:20.263Z,22.30
2017-07-09T08:57:48.278Z,22.40
2017-07-09T09:00:14.554Z,22.30
2017-07-09T09:02:41.587Z,22.50
2017-07-09T09:05:07.851Z,22.40
2017-07-09T09:07:34.127Z,22.60
2017-07-09T09:10:00.386Z,22.70
2017-07-09T09:12:27.381Z,23.30
2017-07-09T09:14:53.662Z,23.30
2017-07-09T09:17:20.663Z,23.80
2017-07-09T09:19:46.939Z,23.80
2017-07-09T09:22:13.941Z,24.40
2017-07-09T09:24:40.201Z,24.40
2017-07-09T09:27:06.485Z,24.80
2017-07-09T09:29:32.759Z,25.00
2017-07-09T09:31:59.768Z,25.10
2017-07-09T09:34:26.028Z,25.10
2017-07-09T09:36:52.289Z,25.40
2017-07-09T09:39:18.569Z,25.50
2017-07-09T09:41:44.825Z,25.70
2017-07-09T09:44:11.086Z,25.80
2017-07-09T09:46:37.350Z,25.90
2017-07-09T09:49:03.616Z,26.00
2017-07-09T09:51:31.667Z,25.80
2017-07-09T09:53:57.914Z,25.70
2017-07-09T09:56:24.908Z,26.10
2017-07-09T09:58:51.158Z,26.10
2017-07-09T10:01:17.414Z,26.40
2017-07-09T10:03:44.436Z,26.80
2017-07-09T10:06:10.695Z,26.70
2017-07-09T10:08:36.971Z,27.00
2017-07-09T10:11:03.229Z,27.00
2017-07-09T10:13:29.500Z,27.40
2017-07-09T10:15:55.802Z,27.60
2017-07-09T10:18:22.080Z,27.80
2017-07-09T10:20:48.347Z,28.10
2017-07-09T10:23:14.611Z,28.00
2017-07-09T10:25:40.873Z,27.90
2017-07-09T10:28:07.171Z,27.90
2017-07-09T10:30:33.432Z,28.00
2017-07-09T10:32:59.687Z,28.00
2017-07-09T10:35:25.957Z,28.20
2017-07-09T10:37:52.213Z,28.30
2017-07-09T10:40:18.502Z,28.40
2017-07-09T10:42:45.511Z,28.40
2017-07-09T10:45:11.799Z,28.40
2017-07-09T10:47:38.063Z,28.30
2017-07-09T10:50:04.326Z,28.40
2017-07-09T10:52:30.632Z,28.30
2017-07-09T10:54:56.889Z,28.40
2017-07-09T10:57:23.141Z,28.50
2017-07-09T10:59:49.746Z,28.60
2017-07-09T11:02:16.746Z,28.30
2017-07-09T11:04:44.134Z,28.30
2017-07-09T11:07:10.398Z,28.40
2017-07-09T11:09:36.674Z,28.40
2017-07-09T11:12:03.649Z,28.40
2017-07-09T11:14:30.662Z,29.00
2017-07-09T11:16:56.954Z,29.00
2017-07-09T11:19:23.234Z,29.20
2017-07-09T11:21:49.495Z,29.20
2017-07-09T11:24:15.776Z,29.50
2017-07-09T11:26:42.066Z,29.60
2017-07-09T11:29:08.354Z,29.50
2017-07-09T11:31:34.630Z,29.40
2017-07-09T11:34:00.892Z,29.10
2017-07-09T11:36:27.173Z,29.40
2017-07-09T11:38:54.166Z,29.40
2017-07-09T11:41:20.450Z,29.40
2017-07-09T11:43:46.712Z,29.50
2017-07-09T11:46:12.971Z,29.50
2017-07-09T11:48:39.234Z,29.50
2017-07-09T11:51:05.502Z,29.50
2017-07-09T11:53:31.778Z,29.70
2017-07-09T11:55:58.787Z,30.00
2017-07-09T11:58:25.045Z,30.00
2017-07-09T12:00:51.302Z,30.00
2017-07-09T12:03:17.558Z,29.90
2017-07-09T12:05:43.846Z,29.90
2017-07-09T12:08:11.129Z,30.00
2017-07-09T12:10:37.405Z,30.00
2017-07-09T12:13:03.682Z,30.40
2017-07-09T12:15:29.969Z,30.70
2017-07-09T12:17:56.990Z,31.20
2017-07-09T12:20:23.306Z,31.10
2017-07-09T12:22:49.581Z,31.60
2017-07-09T12:25:15.867Z,31.80
2017-07-09T12:27:42.126Z,31.70
2017-07-09T12:30:08.397Z,31.70
2017-07-09T12:32:34.657Z,31.60
2017-07-09T12:35:00.938Z,31.70
2017-07-09T12:37:27.192Z,32.00
2017-07-09T12:39:53.458Z,32.50
2017-07-09T12:42:19.741Z,32.50
2017-07-09T12:44:46.002Z,33.20
2017-07-09T12:47:12.274Z,34.00
2017-07-09T12:49:39.279Z,36.10
2017-07-09T12:52:05.542Z,36.00
2017-07-09T12:54:32.566Z,37.80
2017-07-09T12:56:58.830Z,37.70
2017-07-09T12:59:25.821Z,38.00
2017-07-09T13:01:52.115Z,38.00
2017-07-09T13:04:18.370Z,37.50
2017-07-09T13:06:44.649Z,37.30
2017-07-09T13:09:11.682Z,35.90
2017-07-09T13:11:37.950Z,35.80
2017-07-09T13:14:04.213Z,36.00
2017-07-09T13:16:30.489Z,35.80
2017-07-09T13:18:56.766Z,35.50
2017-07-09T13:21:23.026Z,35.20
2017-07-09T13:23:49.285Z,34.90
2017-07-09T13:26:15.572Z,34.70
2017-07-09T13:28:41.837Z,34.30
2017-07-09T13:31:08.122Z,33.90
2017-07-09T13:33:34.510Z,33.80
2017-07-09T13:36:00.774Z,33.50
2017-07-09T13:38:27.068Z,33.30
2017-07-09T13:40:53.325Z,33.10
2017-07-09T13:43:19.650Z,32.90
2017-07-09T13:45:45.914Z,32.80
2017-07-09T13:48:12.182Z,32.50
2017-07-09T13:50:38.440Z,32.70
2017-07-09T13:53:04.703Z,32.60
2017-07-09T13:55:30.996Z,32.80
2017-07-09T13:57:57.254Z,32.80
2017-07-09T14:00:23.535Z,33.40
2017-07-09T14:02:49.806Z,33.70
2017-07-09T14:05:16.071Z,34.10
2017-07-09T14:07:43.082Z,34.40
2017-07-09T14:10:09.353Z,34.40
2017-07-09T14:12:35.609Z,34.50
2017-07-09T14:15:01.917Z,34.90
2017-07-09T14:17:28.182Z,34.90
2017-07-09T14:19:54.461Z,34.80
2017-07-09T14:22:20.719Z,34.60
2017-07-09T14:24:46.985Z,34.50
2017-07-09T14:27:13.274Z,34.30
2017-07-09T14:29:39.547Z,34.10
2017-07-09T14:32:05.846Z,33.80
2017-07-09T14:34:32.140Z,33.60
2017-07-09T14:36:58.398Z,33.50
2017-07-09T14:39:24.661Z,33.60
2017-07-09T14:41:50.938Z,33.90
2017-07-09T14:44:17.190Z,34.30
2017-07-09T14:46:43.452Z,34.70
2017-07-09T14:49:09.732Z,35.20
2017-07-09T14:51:35.998Z,35.60
2017-07-09T14:54:02.330Z,35.50
2017-07-09T14:56:28.613Z,34.90
2017-07-09T14:58:54.874Z,34.00
2017-07-09T15:01:21.134Z,33.40
2017-07-09T15:03:47.394Z,32.80
2017-07-09T15:06:13.678Z,32.40
2017-07-09T15:08:39.951Z,31.90
2017-07-09T15:11:06.206Z,31.50
2017-07-09T15:13:32.458Z,31.00
2017-07-09T15:15:58.719Z,30.40
2017-07-09T15:18:25.763Z,29.20
2017-07-09T15:20:52.763Z,28.70
2017-07-09T15:23:19.017Z,28.60
2017-07-09T15:25:45.274Z,28.30
2017-07-09T15:28:11.536Z,28.00
2017-07-09T15:30:37.825Z,27.70
2017-07-09T15:33:04.813Z,27.60
2017-07-09T15:35:31.102Z,27.60
2017-07-09T15:37:57.374Z,27.20
2017-07-09T15:40:23.625Z,26.40
2017-07-09T15:42:49.897Z,25.60
2017-07-09T15:45:16.169Z,24.80
2017-07-09T15:47:42.426Z,24.30
2017-07-09T15:50:09.435Z,23.40
2017-07-09T15:52:35.685Z,23.30
2017-07-09T15:55:01.960Z,23.10
2017-07-09T15:57:28.223Z,22.70
2017-07-09T15:59:54.505Z,22.40
2017-07-09T16:02:22.513Z,21.80
2017-07-09T16:04:56.029Z,21.80
2017-07-09T16:07:22.715Z,21.80
2017-07-09T16:09:48.981Z,21.60
2017-07-09T16:12:15.242Z,21.50
2017-07-09T16:14:41.513Z,21.40
2017-07-09T16:17:07.771Z,21.20
2017-07-09T16:19:34.059Z,21.10
2017-07-09T16:22:00.346Z,20.90
2017-07-09T16:24:26.646Z,20.80
2017-07-09T16:26:55.613Z,20.60
2017-07-09T16:29:21.885Z,20.30
2017-07-09T16:31:48.206Z,20.00
2017-07-09T16:34:14.475Z,20.00
2017-07-09T16:36:41.481Z,19.80
2017-07-09T16:39:07.788Z,19.70
2017-07-09T16:41:34.062Z,19.90
2017-07-09T16:44:00.333Z,19.90
2017-07-09T16:46:26.606Z,20.00
2017-07-09T16:48:52.904Z,20.20
2017-07-09T16:51:19.167Z,20.40
2017-07-09T16:53:45.418Z,20.50
2017-07-09T16:56:11.706Z,20.50
2017-07-09T16:58:37.982Z,20.60
2017-07-09T17:01:04.992Z,20.70
2017-07-09T17:03:31.259Z,20.60
2017-07-09T17:05:57.527Z,20.80
2017-07-09T17:08:23.803Z,21.00
2017-07-09T17:10:50.105Z,21.10
2017-07-09T17:13:16.374Z,21.10
2017-07-09T17:15:43.387Z,21.10
2017-07-09T17:18:09.691Z,21.10
2017-07-09T17:20:35.987Z,21.00
2017-07-09T17:23:02.977Z,21.60
2017-07-09T17:25:29.319Z,21.60
2017-07-09T17:27:55.583Z,21.80
2017-07-09T17:30:22.602Z,21.90
2017-07-09T17:32:48.899Z,21.90
2017-07-09T17:35:15.189Z,22.00
2017-07-09T17:37:43.215Z,22.20
2017-07-09T17:40:09.502Z,22.20
2017-07-09T17:42:36.761Z,22.30
2017-07-09T17:45:03.049Z,22.20
2017-07-09T17:47:29.326Z,22.20
2017-07-09T17:49:55.596Z,22.30
2017-07-09T17:52:21.855Z,22.00
2017-07-09T17:54:48.861Z,22.10
2017-07-09T17:57:15.226Z,22.00
2017-07-09T17:59:41.494Z,22.10
2017-07-09T18:02:07.750Z,22.10
2017-07-09T18:04:34.019Z,22.00
2017-07-09T18:07:00.285Z,22.20
2017-07-09T18:09:26.554Z,22.20
2017-07-09T18:11:52.813Z,22.20
2017-07-09T18:14:19.090Z,22.10
2017-07-09T18:16:45.350Z,21.90
2017-07-09T18:19:12.366Z,21.60
2017-07-09T18:21:38.645Z,21.60
2017-07-09T18:24:04.886Z,21.40
2017-07-09T18:26:31.148Z,21.30
2017-07-09T18:28:58.474Z,21.30
2017-07-09T18:31:24.758Z,21.30
2017-07-09T18:33:51.041Z,21.40
2017-07-09T18:36:17.330Z,21.50
2017-07-09T18:38:43.609Z,21.40
2017-07-09T18:41:09.873Z,21.30
2017-07-09T18:43:36.170Z,21.30
2017-07-09T18:46:04.526Z,21.20
2017-07-09T18:48:30.789Z,21.30
2017-07-09T18:50:57.161Z,21.10
2017-07-09T18:53:24.154Z,20.90
2017-07-09T18:55:50.426Z,20.80
2017-07-09T18:58:16.703Z,20.80
2017-07-09T19:00:42.967Z,20.60
2017-07-09T19:03:09.231Z,20.60
2017-07-09T19:05:36.247Z,20.30
2017-07-09T19:08:02.517Z,20.30
2017-07-09T19:10:28.786Z,20.20
2017-07-09T19:12:55.374Z,20.30
2017-07-09T19:15:21.646Z,20.30
2017-07-09T19:17:47.909Z,20.20
2017-07-09T19:20:14.955Z,20.10
2017-07-09T19:22:43.957Z,20.10
2017-07-09T19:25:10.967Z,20.00
2017-07-09T19:27:37.234Z,20.00
2017-07-09T19:30:04.270Z,20.10
2017-07-09T19:32:30.579Z,20.10
2017-07-09T19:34:56.868Z,20.00
2017-07-09T19:37:23.134Z,20.00
2017-07-09T19:39:49.415Z,19.90
2017-07-09T19:42:15.681Z,19.80
2017-07-09T19:44:42.012Z,19.70
2017-07-09T19:47:08.330Z,19.80
2017-07-09T19:49:34.589Z,19.80
2017-07-09T19:52:00.862Z,19.60
2017-07-09T19:54:27.126Z,19.40
2017-07-09T19:56:53.374Z,19.60
2017-07-09T19:59:19.642Z,19.50
2017-07-09T20:01:45.942Z,19.30
2017-07-09T20:04:12.232Z,19.10
2017-07-09T20:06:39.589Z,18.90
2017-07-09T20:09:05.845Z,18.90
2017-07-09T20:11:32.121Z,19.00
2017-07-09T20:13:58.426Z,19.00
2017-07-09T20:16:26.266Z,19.00
2017-07-09T20:18:52.575Z,18.90
2017-07-09T20:21:18.846Z,18.90
2017-07-09T20:23:45.139Z,19.00
2017-07-09T20:26:11.443Z,19.00
2017-07-09T20:28:37.718Z,19.10
2017-07-09T20:31:04.030Z,19.20
2017-07-09T20:33:30.331Z,19.30
2017-07-09T20:35:56.593Z,19.30
2017-07-09T20:38:22.918Z,19.40
2017-07-09T20:40:49.195Z,19.60
2017-07-09T20:43:16.478Z,19.60
2017-07-09T20:45:42.771Z,19.70
2017-07-09T20:48:09.117Z,19.80
2017-07-09T20:50:35.388Z,19.90
2017-07-09T20:53:01.674Z,19.90
2017-07-09T20:55:27.932Z,19.90
2017-07-09T20:57:54.219Z,19.80
2017-07-09T21:00:20.495Z,19.70
2017-07-09T21:02:46.750Z,19.60
2017-07-09T21:05:13.036Z,19.50
2017-07-09T21:07:39.324Z,19.30
2017-07-09T21:10:06.329Z,19.30
2017-07-09T21:12:32.588Z,19.30
2017-07-09T21:14:59.665Z,19.20
2017-07-09T21:17:25.965Z,19.10
2017-07-09T21:19:52.988Z,18.90
2017-07-09T21:22:19.246Z,18.90
2017-07-09T21:24:46.266Z,18.80
2017-07-09T21:27:12.526Z,18.80
2017-07-09T21:29:39.547Z,18.80
2017-07-09T21:32:05.811Z,18.80
2017-07-09T21:34:32.078Z,18.70
2017-07-09T21:36:58.338Z,18.60
2017-07-09T21:39:24.619Z,18.50
2017-07-09T21:41:50.901Z,18.60
2017-07-09T21:44:17.174Z,18.60
2017-07-09T21:46:43.430Z,18.70
2017-07-09T21:49:09.686Z,18.70
2017-07-09T21:51:35.981Z,18.70
2017-07-09T21:54:02.294Z,18.70
2017-07-09T21:56:28.553Z,18.50
2017-07-09T21:58:54.833Z,18.50
2017-07-09T22:01:21.099Z,18.50
2017-07-09T22:03:47.397Z,18.40
2017-07-09T22:06:13.661Z,18.40
2017-07-09T22:08:39.922Z,18.40
2017-07-09T22:11:06.355Z,18.40
2017-07-09T22:13:33.381Z,18.50
2017-07-09T22:15:59.675Z,18.50
2017-07-09T22:18:25.971Z,18.50
2017-07-09T22:20:53.002Z,18.50
2017-07-09T22:23:19.285Z,18.40
2017-07-09T22:25:45.555Z,18.50
2017-07-09T22:28:11.844Z,18.50
2017-07-09T22:30:38.149Z,18.60
2017-07-09T22:33:04.423Z,18.50
2017-07-09T22:35:30.814Z,18.40
2017-07-09T22:37:57.077Z,18.50
2017-07-09T22:40:23.330Z,18.40
2017-07-09T22:42:49.642Z,18.40
2017-07-09T22:45:15.923Z,18.50
2017-07-09T22:47:42.192Z,18.40
2017-07-09T22:50:09.450Z,18.40
2017-07-09T22:52:35.722Z,18.60
2017-07-09T22:55:02.014Z,18.80
2017-07-09T22:57:28.302Z,18.90
2017-07-09T22:59:54.565Z,18.90
2017-07-09T23:02:20.822Z,19.00
2017-07-09T23:04:47.106Z,18.80
2017-07-09T23:07:13.391Z,18.70
2017-07-09T23:09:40.430Z,18.60
2017-07-09T23:12:07.438Z,18.50
2017-07-09T23:14:33.694Z,18.50
2017-07-09T23:16:59.955Z,18.60
2017-07-09T23:19:26.270Z,18.50
2017-07-09T23:21:52.556Z,18.60
2017-07-09T23:24:18.808Z,18.50
2017-07-09T23:26:45.505Z,18.30
2017-07-09T23:29:11.771Z,18.30
2017-07-09T23:31:38.066Z,18.20
2017-07-09T23:34:04.342Z,18.20
2017-07-09T23:36:31.374Z,18.10
2017-07-09T23:38:57.636Z,18.10
2017-07-09T23:41:24.640Z,18.00
2017-07-09T23:43:50.939Z,17.90
2017-07-09T23:46:17.213Z,17.80
2017-07-09T23:48:43.538Z,17.70
2017-07-09T23:51:09.813Z,17.80
2017-07-09T23:53:36.102Z,17.80
2017-07-09T23:56:02.391Z,17.80
2017-07-09T23:58:28.717Z,17.80
